sensor_id;sensor_type;location;lat;lon;timestamp;P1;durP1;ratioP1;P2;durP2;ratioP2
57307;SDS011;43152;50.968;18.214;2023-03-11T00:00:34;7.30;;;1.10;;
57307;SDS011;43152;50.968;18.214;2023-03-11T00:10:21;1.70;;;0.50;;
57307;SDS011;43152;50.968;18.214;2023-03-11T00:20:06;6.50;;;2.10;;
57307;SDS011;43152;50.968;18.214;2023-03-11T00:29:49;0.70;;;0.40;;
57307;SDS011;43152;50.968;18.214;2023-03-11T00:46:50;1.90;;;0.70;;
57307;SDS011;43152;50.968;18.214;2023-03-11T00:56:32;6.10;;;1.10;;
57307;SDS011;43152;50.968;18.214;2023-03-11T01:06:14;2.40;;;0.60;;
57307;SDS011;43152;50.968;18.214;2023-03-11T01:15:57;2.60;;;0.80;;
57307;SDS011;43152;50.968;18.214;2023-03-11T01:25:40;2.70;;;1.10;;
57307;SDS011;43152;50.968;18.214;2023-03-11T01:35:25;3.60;;;1.10;;
57307;SDS011;43152;50.968;18.214;2023-03-11T01:45:37;2.70;;;0.70;;
57307;SDS011;43152;50.968;18.214;2023-03-11T01:55:44;2.40;;;0.80;;
57307;SDS011;43152;50.968;18.214;2023-03-11T02:05:30;2.90;;;0.70;;
57307;SDS011;43152;50.968;18.214;2023-03-11T02:15:13;9.20;;;0.90;;
57307;SDS011;43152;50.968;18.214;2023-03-11T02:35:05;4.40;;;1.20;;
57307;SDS011;43152;50.968;18.214;2023-03-11T02:45:12;9.80;;;3.30;;
57307;SDS011;43152;50.968;18.214;2023-03-11T02:54:57;2.20;;;0.60;;
57307;SDS011;43152;50.968;18.214;2023-03-11T03:04:40;1.60;;;0.90;;
57307;SDS011;43152;50.968;18.214;2023-03-11T03:14:21;8.60;;;2.00;;
57307;SDS011;43152;50.968;18.214;2023-03-11T03:24:05;9.60;;;1.60;;
57307;SDS011;43152;50.968;18.214;2023-03-11T03:33:48;5.10;;;0.70;;
57307;SDS011;43152;50.968;18.214;2023-03-11T03:43:31;2.70;;;1.30;;
57307;SDS011;43152;50.968;18.214;2023-03-11T03:53:13;6.60;;;1.40;;
57307;SDS011;43152;50.968;18.214;2023-03-11T04:02:56;3.80;;;0.80;;
57307;SDS011;43152;50.968;18.214;2023-03-11T04:12:42;3.00;;;0.80;;
57307;SDS011;43152;50.968;18.214;2023-03-11T04:22:25;3.70;;;0.80;;
57307;SDS011;43152;50.968;18.214;2023-03-11T04:32:07;10.50;;;1.70;;
57307;SDS011;43152;50.968;18.214;2023-03-11T04:41:50;4.60;;;1.20;;
57307;SDS011;43152;50.968;18.214;2023-03-11T04:51:32;4.60;;;0.80;;
57307;SDS011;43152;50.968;18.214;2023-03-11T05:01:15;1.50;;;1.20;;
57307;SDS011;43152;50.968;18.214;2023-03-11T05:10:57;1.00;;;0.60;;
57307;SDS011;43152;50.968;18.214;2023-03-11T05:20:40;4.10;;;1.10;;
57307;SDS011;43152;50.968;18.214;2023-03-11T05:30:22;6.00;;;1.40;;
57307;SDS011;43152;50.968;18.214;2023-03-11T05:40:05;1.30;;;0.50;;
57307;SDS011;43152;50.968;18.214;2023-03-11T05:49:49;0.40;;;0.30;;
57307;SDS011;43152;50.968;18.214;2023-03-11T05:59:31;0.60;;;0.30;;
57307;SDS011;43152;50.968;18.214;2023-03-11T06:09:14;1.20;;;0.20;;
57307;SDS011;43152;50.968;18.214;2023-03-11T06:18:56;1.10;;;0.30;;
57307;SDS011;43152;50.968;18.214;2023-03-11T06:28:46;1.40;;;0.40;;
57307;SDS011;43152;50.968;18.214;2023-03-11T06:38:37;3.80;;;1.00;;
57307;SDS011;43152;50.968;18.214;2023-03-11T06:48:21;3.20;;;0.60;;
57307;SDS011;43152;50.968;18.214;2023-03-11T06:58:10;3.60;;;0.70;;
57307;SDS011;43152;50.968;18.214;2023-03-11T07:07:53;12.50;;;4.10;;
57307;SDS011;43152;50.968;18.214;2023-03-11T07:17:37;9.40;;;2.20;;
57307;SDS011;43152;50.968;18.214;2023-03-11T07:27:20;6.60;;;2.00;;
57307;SDS011;43152;50.968;18.214;2023-03-11T07:37:03;7.80;;;2.50;;
57307;SDS011;43152;50.968;18.214;2023-03-11T07:46:45;9.00;;;2.80;;
57307;SDS011;43152;50.968;18.214;2023-03-11T07:56:30;13.30;;;3.60;;
57307;SDS011;43152;50.968;18.214;2023-03-11T08:06:19;12.20;;;4.50;;
57307;SDS011;43152;50.968;18.214;2023-03-11T08:16:05;20.50;;;5.00;;
57307;SDS011;43152;50.968;18.214;2023-03-11T08:25:49;15.70;;;2.20;;
57307;SDS011;43152;50.968;18.214;2023-03-11T08:42:48;10.50;;;2.90;;
57307;SDS011;43152;50.968;18.214;2023-03-11T08:52:32;7.10;;;2.70;;
57307;SDS011;43152;50.968;18.214;2023-03-11T09:02:14;10.00;;;2.80;;
57307;SDS011;43152;50.968;18.214;2023-03-11T09:11:56;0.50;;;0.30;;
57307;SDS011;43152;50.968;18.214;2023-03-11T09:21:39;5.40;;;1.90;;
57307;SDS011;43152;50.968;18.214;2023-03-11T09:31:22;6.90;;;1.50;;
57307;SDS011;43152;50.968;18.214;2023-03-11T09:41:07;5.60;;;2.00;;
57307;SDS011;43152;50.968;18.214;2023-03-11T09:59:14;9.70;;;2.70;;
57307;SDS011;43152;50.968;18.214;2023-03-11T10:40:39;6.60;;;2.60;;
57307;SDS011;43152;50.968;18.214;2023-03-11T11:00:59;14.00;;;5.60;;
57307;SDS011;43152;50.968;18.214;2023-03-11T11:10:58;11.00;;;4.00;;
57307;SDS011;43152;50.968;18.214;2023-03-11T11:40:43;15.10;;;5.50;;
57307;SDS011;43152;50.968;18.214;2023-03-11T11:50:39;10.60;;;3.70;;
57307;SDS011;43152;50.968;18.214;2023-03-11T12:11:15;7.00;;;1.80;;
57307;SDS011;43152;50.968;18.214;2023-03-11T12:31:53;5.00;;;1.80;;
57307;SDS011;43152;50.968;18.214;2023-03-11T13:02:00;8.10;;;3.00;;
57307;SDS011;43152;50.968;18.214;2023-03-11T13:43:58;4.50;;;1.70;;
57307;SDS011;43152;50.968;18.214;2023-03-11T14:04:33;12.50;;;3.10;;
57307;SDS011;43152;50.968;18.214;2023-03-11T14:15:44;8.10;;;2.30;;
57307;SDS011;43152;50.968;18.214;2023-03-11T14:25:41;0.20;;;0.20;;
57307;SDS011;43152;50.968;18.214;2023-03-11T14:35:31;7.20;;;2.00;;
57307;SDS011;43152;50.968;18.214;2023-03-11T14:45:27;10.20;;;1.20;;
57307;SDS011;43152;50.968;18.214;2023-03-11T14:55:30;5.60;;;1.80;;
57307;SDS011;43152;50.968;18.214;2023-03-11T15:05:41;9.10;;;1.70;;
57307;SDS011;43152;50.968;18.214;2023-03-11T15:15:31;5.40;;;1.80;;
57307;SDS011;43152;50.968;18.214;2023-03-11T15:25:25;3.80;;;0.90;;
57307;SDS011;43152;50.968;18.214;2023-03-11T15:35:12;8.20;;;1.80;;
57307;SDS011;43152;50.968;18.214;2023-03-11T15:45:10;5.60;;;1.60;;
57307;SDS011;43152;50.968;18.214;2023-03-11T15:55:04;13.80;;;2.30;;
57307;SDS011;43152;50.968;18.214;2023-03-11T16:04:49;30.80;;;6.50;;
57307;SDS011;43152;50.968;18.214;2023-03-11T16:14:41;13.20;;;3.80;;
57307;SDS011;43152;50.968;18.214;2023-03-11T16:24:24;4.20;;;2.00;;
57307;SDS011;43152;50.968;18.214;2023-03-11T16:34:13;18.10;;;4.70;;
57307;SDS011;43152;50.968;18.214;2023-03-11T16:44:00;16.30;;;4.70;;
57307;SDS011;43152;50.968;18.214;2023-03-11T16:53:43;14.80;;;2.80;;
57307;SDS011;43152;50.968;18.214;2023-03-11T17:03:25;8.90;;;3.60;;
57307;SDS011;43152;50.968;18.214;2023-03-11T17:13:15;10.40;;;3.20;;
57307;SDS011;43152;50.968;18.214;2023-03-11T17:23:01;9.30;;;3.40;;
57307;SDS011;43152;50.968;18.214;2023-03-11T17:32:45;8.70;;;4.10;;
57307;SDS011;43152;50.968;18.214;2023-03-11T17:42:27;2.40;;;0.50;;
57307;SDS011;43152;50.968;18.214;2023-03-11T17:52:13;9.90;;;3.70;;
57307;SDS011;43152;50.968;18.214;2023-03-11T18:01:55;14.10;;;4.60;;
57307;SDS011;43152;50.968;18.214;2023-03-11T18:11:37;2.60;;;1.10;;
57307;SDS011;43152;50.968;18.214;2023-03-11T18:21:22;10.40;;;3.50;;
57307;SDS011;43152;50.968;18.214;2023-03-11T18:31:18;8.20;;;3.60;;
57307;SDS011;43152;50.968;18.214;2023-03-11T18:41:04;21.10;;;5.80;;
57307;SDS011;43152;50.968;18.214;2023-03-11T18:50:53;15.70;;;4.90;;
57307;SDS011;43152;50.968;18.214;2023-03-11T19:00:43;5.30;;;2.00;;
57307;SDS011;43152;50.968;18.214;2023-03-11T19:10:37;24.60;;;6.20;;
57307;SDS011;43152;50.968;18.214;2023-03-11T19:20:20;32.40;;;6.70;;
57307;SDS011;43152;50.968;18.214;2023-03-11T19:30:04;23.80;;;6.50;;
57307;SDS011;43152;50.968;18.214;2023-03-11T19:39:47;15.20;;;3.70;;
57307;SDS011;43152;50.968;18.214;2023-03-11T19:49:30;26.90;;;7.20;;
57307;SDS011;43152;50.968;18.214;2023-03-11T19:59:13;17.60;;;4.50;;
57307;SDS011;43152;50.968;18.214;2023-03-11T20:08:58;35.40;;;7.10;;
57307;SDS011;43152;50.968;18.214;2023-03-11T20:18:41;19.30;;;4.40;;
57307;SDS011;43152;50.968;18.214;2023-03-11T20:28:29;13.40;;;5.60;;
57307;SDS011;43152;50.968;18.214;2023-03-11T20:38:11;6.80;;;2.10;;
57307;SDS011;43152;50.968;18.214;2023-03-11T20:47:54;21.20;;;4.10;;
57307;SDS011;43152;50.968;18.214;2023-03-11T20:57:38;16.40;;;3.30;;
57307;SDS011;43152;50.968;18.214;2023-03-11T21:07:25;24.10;;;4.40;;
57307;SDS011;43152;50.968;18.214;2023-03-11T21:17:11;11.20;;;4.80;;
57307;SDS011;43152;50.968;18.214;2023-03-11T21:26:54;17.10;;;5.80;;
57307;SDS011;43152;50.968;18.214;2023-03-11T21:36:36;15.70;;;5.80;;
57307;SDS011;43152;50.968;18.214;2023-03-11T21:46:21;14.30;;;4.50;;
57307;SDS011;43152;50.968;18.214;2023-03-11T21:56:06;18.50;;;5.00;;
57307;SDS011;43152;50.968;18.214;2023-03-11T22:05:54;16.30;;;5.10;;
57307;SDS011;43152;50.968;18.214;2023-03-11T22:15:37;15.10;;;4.20;;
57307;SDS011;43152;50.968;18.214;2023-03-11T22:25:19;12.40;;;4.10;;
57307;SDS011;43152;50.968;18.214;2023-03-11T22:35:01;18.00;;;6.80;;
57307;SDS011;43152;50.968;18.214;2023-03-11T22:44:44;17.90;;;5.70;;
57307;SDS011;43152;50.968;18.214;2023-03-11T22:54:27;18.30;;;5.60;;
57307;SDS011;43152;50.968;18.214;2023-03-11T23:21:39;11.40;;;5.40;;
57307;SDS011;43152;50.968;18.214;2023-03-11T23:31:23;12.10;;;3.30;;
57307;SDS011;43152;50.968;18.214;2023-03-11T23:48:24;13.20;;;4.40;;
57307;SDS011;43152;50.968;18.214;2023-03-11T23:58:07;17.90;;;5.30;;
